Time;durP1;ratioP1;P1;durP2;ratioP2;P2;SDS_P1;SDS_P2;PMS_P1;PMS_P2;Temp;Humidity;BMP_temperature;BMP_pressure;BME280_temperature;BME280_humidity;BME280_pressure;Samples;Min_cycle;Max_cycle;Signal;HPM_P1;HPM_P2
2024/04/03 00:01:16;;;;;;;73.35;68.55;;;;;;;9.09;79.58;98757.74;1762945;81;25435;-74
2024/04/03 00:03:44;;;;;;;71.67;67.12;;;;;;;9.07;79.56;98754.60;1763029;81;25521;-74
2024/04/03 00:06:10;;;;;;;71.80;67.08;;;;;;;9.05;79.69;98747.41;1762988;81;25548;-74
2024/04/03 00:08:37;;;;;;;73.05;68.25;;;;;;;9.05;79.61;98744.14;1763070;81;25527;-75
2024/04/03 00:11:06;;;;;;;71.70;67.20;;;;;;;9.07;79.68;98757.30;1762964;81;27472;-74
2024/04/03 00:13:33;;;;;;;72.37;67.12;;;;;;;9.06;80.07;98749.78;1762847;81;25606;-74
2024/04/03 00:16:00;;;;;;;72.47;67.87;;;;;;;9.07;80.13;98743.24;1763005;81;25533;-74
2024/04/03 00:18:28;;;;;;;73.33;68.50;;;;;;;9.10;79.93;98751.23;1762894;81;25582;-73
2024/04/03 00:21:03;;;;;;;69.32;64.87;;;;;;;9.11;79.99;98748.78;1763070;81;25576;-73
2024/04/03 00:23:32;;;;;;;71.10;66.40;;;;;;;9.12;79.85;98748.98;1763026;81;27249;-74
2024/04/03 00:26:01;;;;;;;72.53;68.00;;;;;;;9.13;79.95;98743.83;1762781;81;25709;-74
2024/04/03 00:28:31;;;;;;;71.40;66.50;;;;;;;9.12;79.64;98752.46;1763060;81;25466;-73
2024/04/03 00:31:02;;;;;;;74.60;69.65;;;;;;;9.13;79.99;98760.79;1763118;81;25608;-74
2024/04/03 00:33:28;;;;;;;76.45;71.42;;;;;;;9.13;79.94;98750.00;1763054;81;25556;-74
2024/04/03 00:36:01;;;;;;;71.55;66.85;;;;;;;9.13;80.06;98745.95;1762959;81;27327;-75
2024/04/03 00:38:27;;;;;;;71.62;66.87;;;;;;;9.14;79.73;98758.33;1762895;81;25563;-74
2024/04/03 00:41:00;;;;;;;70.65;66.00;;;;;;;9.14;79.79;98766.96;1762927;81;25459;-72
2024/04/03 00:43:29;;;;;;;70.47;66.05;;;;;;;9.14;80.15;98771.81;1762924;81;25693;-72
2024/04/03 00:46:00;;;;;;;73.17;68.40;;;;;;;9.14;79.59;98771.81;1763139;81;25642;-77
2024/04/03 00:48:30;;;;;;;72.62;67.72;;;;;;;9.12;79.93;98761.90;1761457;81;27435;-72
2024/04/03 00:51:00;;;;;;;68.85;64.47;;;;;;;9.09;80.05;98751.00;1763023;81;25562;-74
2024/04/03 00:53:29;;;;;;;70.90;66.40;;;;;;;9.07;79.99;98760.00;1763116;81;25618;-74
2024/04/03 00:55:57;;;;;;;;;;;;;;;9.05;79.81;98749.54;1765695;81;25526;-73
2024/04/03 00:58:26;;;;;;;71.80;67.25;;;;;;;9.03;80.04;98749.09;1763150;81;25572;-74
2024/04/03 01:00:52;;;;;;;70.17;65.65;;;;;;;9.02;80.37;98749.43;1763141;81;28286;-74
2024/04/03 01:03:18;;;;;;;71.90;66.90;;;;;;;9.00;80.06;98742.24;1763097;81;25563;-74
2024/04/03 01:05:44;;;;;;;71.70;67.08;;;;;;;8.96;80.49;98740.21;1763137;81;25424;-72
2024/04/03 01:08:11;;;;;;;72.55;67.70;;;;;;;8.96;80.65;98745.60;1763068;81;25546;-71
2024/04/03 01:10:37;;;;;;;69.62;64.92;;;;;;;8.95;80.16;98745.94;1763192;81;25404;-72
2024/04/03 01:13:03;;;;;;;71.37;66.85;;;;;;;8.96;80.48;98769.09;1763114;81;27389;-71
2024/04/03 01:15:30;;;;;;;71.15;66.35;;;;;;;8.95;80.39;98742.67;1763077;81;25599;-71
2024/04/03 01:17:56;;;;;;;51.00;47.30;;;;;;;8.95;80.44;98749.98;1763128;81;25438;-72
2024/04/03 01:20:24;;;;;;;6.65;3.60;;;;;;;9.01;80.42;98765.38;1763021;81;25361;-72
2024/04/03 01:22:52;;;;;;;5.17;3.55;;;;;;;9.00;80.79;98757.08;1763171;81;25433;-73
2024/04/03 01:25:19;;;;;;;9.43;4.12;;;;;;;9.01;80.34;98761.33;1763083;81;27356;-71
2024/04/03 01:27:45;;;;;;;6.37;3.85;;;;;;;8.99;80.45;98756.30;1762779;81;25550;-71
2024/04/03 01:30:11;;;;;;;8.80;4.08;;;;;;;8.98;80.61;98761.45;1762993;81;25563;-72
2024/04/03 01:32:38;;;;;;;7.37;3.80;;;;;;;8.96;80.82;98751.56;1763007;81;25835;-73
2024/04/03 01:35:07;;;;;;;7.92;3.98;;;;;;;8.97;80.92;98745.03;1763053;81;25537;-71
2024/04/03 01:37:33;;;;;;;6.20;3.72;;;;;;;8.97;80.57;98746.38;1763121;81;27372;-71
2024/04/03 01:39:59;;;;;;;8.98;3.50;;;;;;;8.97;80.49;98749.08;1762911;81;25616;-72
2024/04/03 01:42:27;;;;;;;8.28;3.35;;;;;;;8.96;80.72;98744.25;1762971;81;25445;-70
2024/04/03 01:44:54;;;;;;;6.37;2.92;;;;;;;8.97;80.77;98740.98;1762959;81;25626;-71
2024/04/03 01:47:20;;;;;;;7.87;3.60;;;;;;;8.98;80.57;98753.36;1763066;81;25547;-71
2024/04/03 01:49:47;;;;;;;8.50;3.52;;;;;;;8.98;80.45;98747.40;1763019;81;27373;-71
2024/04/03 01:52:15;;;;;;;5.10;3.12;;;;;;;8.97;80.38;98745.84;1737519;81;25620;-71
2024/04/03 01:54:41;;;;;;;7.75;3.65;;;;;;;8.94;80.49;98737.07;1763106;81;25526;-71
2024/04/03 01:57:07;;;;;;;5.75;3.60;;;;;;;8.94;80.32;98763.25;1763056;81;25535;-71
2024/04/03 01:59:33;;;;;;;7.97;4.00;;;;;;;8.93;80.73;98754.93;1763171;81;25489;-70
2024/04/03 02:01:59;;;;;;;6.78;3.70;;;;;;;8.92;81.11;98728.53;1763068;81;27318;-70
2024/04/03 02:04:26;;;;;;;5.65;3.45;;;;;;;8.95;81.18;98756.15;1762999;81;25368;-71
2024/04/03 02:06:52;;;;;;;6.92;3.77;;;;;;;8.96;81.27;98751.56;1763075;81;25423;-70
2024/04/03 02:09:18;;;;;;;6.28;4.00;;;;;;;8.98;81.37;98741.23;1763052;81;25501;-71
2024/04/03 02:11:44;;;;;;;8.78;3.75;;;;;;;9.00;80.98;98747.06;1763083;81;25405;-71
2024/04/03 02:14:12;;;;;;;7.20;4.10;;;;;;;9.01;80.86;98754.05;1763086;81;27860;-71
2024/04/03 02:16:46;;;;;;;7.42;3.83;;;;;;;9.02;80.89;98749.43;1762936;81;25583;-70
2024/04/03 02:19:13;;;;;;;8.45;4.35;;;;;;;9.04;80.87;98751.22;1763041;81;25575;-70
2024/04/03 02:21:41;;;;;;;6.12;3.50;;;;;;;9.05;80.89;98749.54;1763044;81;25386;-70
2024/04/03 02:24:07;;;;;;;5.85;3.62;;;;;;;9.06;80.54;98745.73;1763061;81;25603;-70
2024/04/03 02:26:33;;;;;;;6.00;3.52;;;;;;;9.07;80.50;98747.29;1762859;81;27306;-71
2024/04/03 02:29:00;;;;;;;5.72;4.10;;;;;;;9.08;80.52;98743.48;1762986;81;25450;-71
2024/04/03 02:31:29;;;;;;;5.85;3.55;;;;;;;9.07;80.43;98737.07;1762977;81;25661;-71
2024/04/03 02:33:55;;;;;;;5.83;4.00;;;;;;;9.06;80.56;98744.38;1763084;81;35002;-71
2024/04/03 02:36:23;;;;;;;9.25;3.75;;;;;;;9.06;80.48;98737.64;1762969;81;25481;-71
2024/04/03 02:38:50;;;;;;;5.92;3.85;;;;;;;9.06;80.38;98740.34;1763056;81;27398;-70
2024/04/03 02:41:18;;;;;;;9.10;3.90;;;;;;;9.07;80.84;98737.84;1762977;81;25549;-71
2024/04/03 02:43:44;;;;;;;4.37;3.75;;;;;;;9.06;80.54;98725.50;1762983;81;25425;-70
2024/04/03 02:46:10;;;;;;;5.97;3.45;;;;;;;9.06;80.58;98741.69;1762944;81;25599;-71
2024/04/03 02:48:36;;;;;;;6.87;3.40;;;;;;;9.06;80.50;98731.44;1763052;81;25393;-71
2024/04/03 02:51:07;;;;;;;6.67;3.80;;;;;;;9.05;80.49;98737.97;1762939;81;27335;-70
2024/04/03 02:53:34;;;;;;;8.10;3.72;;;;;;;9.05;80.46;98742.02;1762955;81;25445;-69
2024/04/03 02:56:09;;;;;;;7.58;3.83;;;;;;;9.03;80.71;98734.27;1762985;81;25453;-69
2024/04/03 02:58:37;;;;;;;9.40;4.08;;;;;;;9.05;81.00;98736.05;1762925;81;25910;-68
2024/04/03 03:01:08;;;;;;;7.15;4.08;;;;;;;9.05;80.70;98737.41;1763062;81;25555;-68
2024/04/03 03:03:37;;;;;;;5.35;3.30;;;;;;;9.04;80.96;98716.16;1763033;81;26972;-68
2024/04/03 03:06:07;;;;;;;5.10;3.95;;;;;;;9.02;80.81;98725.94;1763058;81;35109;-68
2024/04/03 03:08:35;;;;;;;7.40;3.37;;;;;;;9.01;80.69;98728.42;1762989;81;25369;-68
2024/04/03 03:11:05;;;;;;;6.28;3.45;;;;;;;9.02;80.77;98736.72;1762930;81;25650;-68
2024/04/03 03:13:32;;;;;;;8.25;3.02;;;;;;;9.01;80.89;98741.10;1762977;81;25178;-68
2024/04/03 03:16:03;;;;;;;5.12;3.20;;;;;;;9.00;80.88;98728.75;1763077;81;27363;-70
2024/04/03 03:18:35;;;;;;;6.12;3.25;;;;;;;9.02;80.91;98731.89;1762852;81;25429;-69
2024/04/03 03:21:02;;;;;;;4.17;2.77;;;;;;;9.03;80.79;98732.91;1762998;81;25390;-70
2024/04/03 03:23:28;;;;;;;5.25;3.72;;;;;;;9.03;80.91;98726.17;1762901;81;25627;-70
2024/04/03 03:25:54;;;;;;;5.10;3.10;;;;;;;9.02;80.77;98732.67;1762971;81;25438;-68
2024/04/03 03:28:22;;;;;;;5.65;3.00;;;;;;;9.02;80.42;98732.67;1762796;81;27377;-68
2024/04/03 03:30:52;;;;;;;3.10;2.80;;;;;;;9.02;80.66;98704.93;1762890;81;25627;-68
2024/04/03 03:33:20;;;;;;;7.40;3.30;;;;;;;9.00;80.56;98724.14;1763007;81;25540;-68
2024/04/03 03:35:56;;;;;;;5.47;3.25;;;;;;;9.00;80.49;98718.75;1762986;81;25637;-69
2024/04/03 03:38:25;;;;;;;8.50;3.20;;;;;;;9.01;80.89;98726.27;1762924;81;25380;-68
2024/04/03 03:40:53;;;;;;;4.53;2.83;;;;;;;9.00;80.46;98697.17;1763135;81;27333;-69
2024/04/03 03:43:21;;;;;;;5.90;3.20;;;;;;;8.99;80.23;98725.28;1762847;81;27166;-68
2024/04/03 03:45:51;;;;;;;4.10;3.22;;;;;;;8.97;80.48;98717.52;1762955;81;25592;-68
2024/04/03 03:52:35;;;;;;;7.95;4.40;;;;;;;8.98;80.56;98723.70;1762897;81;25569;-68
2024/04/03 03:53:33;;;;;;;8.85;3.22;;;;;;;8.97;80.43;98735.59;1763007;81;27325;-68
2024/04/03 03:56:11;;;;;;;7.00;3.47;;;;;;;8.96;80.51;98744.83;1762865;81;25484;-68
2024/04/03 03:58:37;;;;;;;6.75;3.15;;;;;;;8.95;80.57;98744.59;1762891;81;25461;-67
2024/04/03 04:01:05;;;;;;;7.65;3.62;;;;;;;8.96;80.57;98743.48;1762795;81;25436;-67
2024/04/03 04:03:31;;;;;;;5.80;3.52;;;;;;;8.96;80.87;98737.52;1762913;81;25437;-68
2024/04/03 04:06:03;;;;;;;6.40;3.90;;;;;;;8.96;80.63;98746.95;1762902;81;27165;-67
2024/04/03 04:08:29;;;;;;;4.33;3.25;;;;;;;8.97;80.53;98738.29;1762845;81;25433;-67
2024/04/03 04:11:00;;;;;;;6.35;3.67;;;;;;;8.97;80.67;98732.89;1762925;81;25383;-68
2024/04/03 04:13:28;;;;;;;7.28;3.65;;;;;;;8.97;80.43;98739.09;1762910;81;25606;-68
2024/04/03 04:16:02;;;;;;;6.10;3.85;;;;;;;8.98;80.59;98729.09;1763060;81;25520;-68
2024/04/03 04:18:29;;;;;;;6.80;3.83;;;;;;;8.98;80.65;98733.91;1762966;81;28031;-68
2024/04/03 04:20:58;;;;;;;72.85;68.02;;;;;;;8.98;80.74;98733.13;1762772;81;25546;-68
2024/04/03 04:23:27;;;;;;;14.13;10.40;;;;;;;8.94;80.73;98708.75;1762984;81;25536;-68
2024/04/03 04:26:02;;;;;;;5.78;3.75;;;;;;;9.01;80.57;98735.70;1763016;81;25555;-67
2024/04/03 04:28:33;;;;;;;4.72;3.10;;;;;;;9.04;80.46;98721.55;1757757;81;25366;-68
2024/04/03 04:31:04;;;;;;;6.58;3.50;;;;;;;9.03;80.68;98734.27;1754324;81;27323;-68
2024/04/03 04:33:35;;;;;;;7.70;3.90;;;;;;;9.04;80.46;98733.69;1754197;81;25601;-67
2024/04/03 04:36:05;;;;;;;5.33;3.80;;;;;;;9.04;80.51;98729.64;1754324;81;25381;-68
2024/04/03 04:38:33;;;;;;;4.75;3.12;;;;;;;9.03;80.65;98727.52;1754265;81;25480;-68
2024/04/03 04:41:03;;;;;;;5.67;3.92;;;;;;;9.04;80.56;98735.84;1754256;81;25677;-68
2024/04/03 04:43:33;;;;;;;4.78;3.33;;;;;;;9.06;80.54;98724.70;1754344;81;27898;-67
2024/04/03 04:46:05;;;;;;;7.42;4.55;;;;;;;9.07;80.62;98738.42;1754205;81;25428;-67
2024/04/03 04:48:33;;;;;;;6.15;4.10;;;;;;;9.07;80.50;98735.15;1754337;81;25393;-68
2024/04/03 04:51:05;;;;;;;6.70;4.33;;;;;;;9.07;80.54;98712.22;1754204;81;25602;-66
2024/04/03 04:53:34;;;;;;;4.35;3.77;;;;;;;9.09;80.59;98737.52;1754375;81;25480;-67
2024/04/03 04:56:06;;;;;;;;;;;;;;;9.11;80.61;98715.84;1756920;81;27341;-67
2024/04/03 04:58:32;;;;;;;7.22;4.70;;;;;;;9.13;80.61;98727.64;1754225;81;25599;-67
2024/04/03 05:01:07;;;;;;;5.83;5.25;;;;;;;9.11;80.68;98713.71;1754173;81;25603;-67
2024/04/03 05:03:36;;;;;;;5.85;5.15;;;;;;;9.12;80.59;98727.41;1754278;81;25446;-67
2024/04/03 05:06:06;;;;;;;5.55;5.05;;;;;;;9.15;80.80;98718.64;1754419;81;25449;-67
2024/04/03 05:08:35;;;;;;;7.17;5.12;;;;;;;9.16;80.73;98735.84;1754264;81;27319;-67
2024/04/03 05:11:04;;;;;;;7.17;6.10;;;;;;;9.17;80.74;98727.18;1753266;81;27173;-66
2024/04/03 05:13:34;;;;;;;6.33;5.12;;;;;;;9.18;80.66;98724.72;1753013;81;25614;-66
2024/04/03 05:16:08;;;;;;;6.75;5.80;;;;;;;9.21;80.68;98718.66;1752913;81;25915;-66
2024/04/03 05:18:36;;;;;;;8.58;5.60;;;;;;;9.24;80.68;98723.92;1752982;81;25707;-67
2024/04/03 05:21:05;;;;;;;9.63;5.35;;;;;;;9.28;80.70;98723.45;1752942;81;27800;-67
2024/04/03 05:23:32;;;;;;;6.28;5.25;;;;;;;9.30;80.82;98728.75;1752993;81;29728;-66
2024/04/03 05:26:08;;;;;;;6.45;5.10;;;;;;;9.32;80.79;98725.16;1753648;81;25379;-66
2024/04/03 05:28:41;;;;;;;6.30;5.65;;;;;;;9.35;80.94;98727.75;1754060;81;26729;-66
2024/04/03 05:31:15;;;;;;;7.20;6.58;;;;;;;9.35;80.90;98735.27;1754313;81;25381;-66
2024/04/03 05:33:43;;;;;;;7.15;5.22;;;;;;;9.38;80.67;98727.08;1754290;81;27416;-67
2024/04/03 05:36:13;;;;;;;6.15;5.17;;;;;;;9.38;80.57;98734.36;1754317;81;25548;-66
2024/04/03 05:38:41;;;;;;;6.20;5.47;;;;;;;9.37;80.72;98730.11;1754557;81;25396;-67
2024/04/03 05:41:12;;;;;;;7.40;5.12;;;;;;;9.40;80.86;98738.31;1754314;81;25531;-67
2024/04/03 05:43:40;;;;;;;8.43;5.28;;;;;;;9.42;80.78;98746.08;1754538;81;25519;-66
2024/04/03 05:46:09;;;;;;;5.58;5.00;;;;;;;9.44;80.87;98734.38;1754429;81;27387;-66
2024/04/03 05:48:38;;;;;;;8.63;6.58;;;;;;;9.45;80.60;98724.59;1754406;81;34677;-66
2024/04/03 05:51:08;;;;;;;8.60;5.25;;;;;;;9.47;80.54;98751.24;1754411;81;25515;-65
2024/04/03 05:53:37;;;;;;;6.45;4.87;;;;;;;9.50;80.57;98741.91;1754503;81;25588;-66
2024/04/03 05:56:07;;;;;;;6.25;4.75;;;;;;;9.54;80.39;98742.01;1754596;81;25186;-66
2024/04/03 05:58:34;;;;;;;7.85;4.60;;;;;;;9.58;80.27;98756.38;1754537;81;27312;-66
2024/04/03 06:01:07;;;;;;;5.60;5.00;;;;;;;9.63;80.32;98749.97;1754373;81;25538;-66
2024/04/03 06:03:36;;;;;;;6.25;4.72;;;;;;;9.64;79.80;98740.19;1754445;81;25614;-66
2024/04/03 06:06:04;;;;;;;5.08;4.47;;;;;;;9.64;79.73;98741.54;1754505;81;25535;-66
2024/04/03 06:08:30;;;;;;;6.62;4.78;;;;;;;9.67;79.68;98755.72;1754699;81;25559;-67
2024/04/03 06:10:56;;;;;;;6.72;4.25;;;;;;;9.67;79.33;98744.91;1754376;81;27433;-67
2024/04/03 06:13:25;;;;;;;4.97;3.87;;;;;;;9.70;79.28;98755.04;1754282;81;25442;-67
2024/04/03 06:15:54;;;;;;;7.95;4.17;;;;;;;9.74;79.28;98752.44;1754594;81;25377;-67
2024/04/03 06:18:24;;;;;;;4.85;3.37;;;;;;;9.75;79.14;98755.92;1754465;81;26271;-67
2024/04/03 06:20:50;;;;;;;5.33;3.47;;;;;;;9.78;79.01;98753.89;1754557;81;25536;-67
2024/04/03 06:23:19;;;;;;;4.72;3.90;;;;;;;9.79;79.17;98758.95;1754467;81;28527;-66
2024/04/03 06:25:45;;;;;;;4.87;3.75;;;;;;;9.82;80.10;98762.88;1754217;81;25583;-69
2024/04/03 06:28:12;;;;;;;6.85;3.90;;;;;;;9.77;81.15;98763.11;1755774;81;25448;-68
2024/04/03 06:30:38;;;;;;;4.47;3.95;;;;;;;9.67;81.07;98775.96;1763002;81;25662;-68
2024/04/03 06:33:06;;;;;;;6.03;4.12;;;;;;;9.58;81.15;98768.53;1763061;81;25550;-67
2024/04/03 06:35:35;;;;;;;6.30;4.55;;;;;;;9.47;82.18;98769.56;1762903;81;27395;-69
2024/04/03 06:38:01;;;;;;;13.00;5.42;;;;;;;9.43;82.18;98774.08;1763049;81;26137;-68
2024/04/03 06:40:29;;;;;;;5.08;4.25;;;;;;;9.39;82.82;98773.16;1762973;81;25374;-68
2024/04/03 06:42:56;;;;;;;6.05;4.80;;;;;;;9.38;83.29;98785.64;1762962;81;26164;-68
2024/04/03 06:45:23;;;;;;;7.22;4.97;;;;;;;9.36;84.39;98775.17;1763113;81;25582;-69
2024/04/03 06:47:50;;;;;;;7.67;5.03;;;;;;;9.35;84.43;98746.64;1763108;81;28043;-69
2024/04/03 06:50:16;;;;;;;7.22;4.90;;;;;;;9.33;84.71;98769.09;1762982;81;25456;-68
2024/04/03 06:52:42;;;;;;;6.45;5.20;;;;;;;9.40;85.33;98781.49;1762958;81;25623;-69
2024/04/03 06:55:09;;;;;;;8.03;4.67;;;;;;;9.47;84.93;98775.53;1762954;81;25584;-68
2024/04/03 06:57:35;;;;;;;6.97;4.42;;;;;;;9.57;84.91;98776.97;1762978;81;25610;-67
2024/04/03 07:00:06;;;;;;;12.58;4.60;;;;;;;9.58;84.48;98776.63;1763121;81;27845;-69
2024/04/03 07:02:33;;;;;;;8.55;6.40;;;;;;;9.61;84.59;98784.06;1763167;81;25689;-70
2024/04/03 07:04:59;;;;;;;8.83;6.90;;;;;;;9.67;84.37;98785.41;1763243;81;25187;-71
2024/04/03 07:07:28;;;;;;;8.05;4.25;;;;;;;9.74;83.87;98788.89;1763187;81;25655;-71
2024/04/03 07:09:55;;;;;;;6.42;4.12;;;;;;;9.84;83.68;98787.62;1763006;81;25550;-71
2024/04/03 07:12:22;;;;;;;5.20;4.25;;;;;;;9.90;83.58;98785.70;1762988;81;27415;-72
2024/04/03 07:14:48;;;;;;;4.83;3.75;;;;;;;9.93;82.87;98792.89;1762898;81;25692;-70
2024/04/03 07:17:15;;;;;;;6.58;3.85;;;;;;;9.96;82.39;98806.52;1762954;81;25434;-69
2024/04/03 07:19:44;;;;;;;4.33;3.83;;;;;;;9.99;82.19;98812.57;1762943;81;25388;-69
2024/04/03 07:22:10;;;;;;;4.87;3.60;;;;;;;10.03;81.70;98808.65;1763036;81;25530;-70
2024/04/03 07:24:36;;;;;;;4.00;2.80;;;;;;;10.02;81.33;98819.22;1762973;81;27879;-69
2024/04/03 07:27:04;;;;;;;4.72;3.40;;;;;;;9.99;81.77;98817.97;1762840;81;25421;-69
2024/04/03 07:29:31;;;;;;;4.33;3.25;;;;;;;9.90;81.87;98812.70;1757950;80;25555;-69
2024/04/03 07:31:57;;;;;;;4.67;3.30;;;;;;;9.78;81.64;98810.03;1754256;81;25528;-69
2024/04/03 07:34:23;;;;;;;5.62;3.52;;;;;;;9.72;82.31;98824.88;1754369;81;25394;-69
2024/04/03 07:36:51;;;;;;;6.47;4.00;;;;;;;9.66;82.99;98828.38;1754421;81;27402;-69
2024/04/03 07:39:17;;;;;;;6.70;4.17;;;;;;;9.61;83.38;98829.17;1754230;81;25974;-69
2024/04/03 07:41:43;;;;;;;6.47;4.53;;;;;;;9.59;84.02;98832.77;1754341;81;25216;-68
2024/04/03 07:44:16;;;;;;;5.80;4.25;;;;;;;9.59;84.12;98836.83;1754226;81;27527;-69
2024/04/03 07:46:38;;;;;;;7.62;4.67;;;;;;;9.53;84.25;98826.80;1752928;81;25620;-70
2024/04/03 07:49:04;;;;;;;5.50;4.67;;;;;;;9.55;84.77;98855.58;1754300;81;27336;-69
2024/04/03 07:51:30;;;;;;;5.22;3.90;;;;;;;9.55;84.28;98835.34;1754273;81;25611;-68
2024/04/03 07:53:58;;;;;;;8.35;4.35;;;;;;;9.60;84.76;98834.33;1754379;81;25611;-67
2024/04/03 07:56:24;;;;;;;5.42;3.95;;;;;;;9.66;84.50;98822.20;1754366;81;25624;-67
2024/04/03 07:58:50;;;;;;;7.70;4.28;;;;;;;9.73;84.42;98838.03;1754339;81;25136;-67
2024/04/03 08:01:17;;;;;;;4.62;3.80;;;;;;;9.83;84.45;98820.59;1754679;81;27321;-68
2024/04/03 08:03:43;;;;;;;4.80;4.20;;;;;;;10.00;84.37;98818.78;1753042;81;27096;-67
2024/04/03 08:06:09;;;;;;;4.28;3.87;;;;;;;10.08;83.44;98832.73;1753798;81;25734;-67
2024/04/03 08:08:36;;;;;;;4.78;3.95;;;;;;;10.22;83.59;98813.44;1754320;81;25584;-67
2024/04/03 08:11:03;;;;;;;11.48;7.05;;;;;;;10.33;82.70;98820.52;1754572;81;25603;-69
2024/04/03 08:13:29;;;;;;;11.35;8.23;;;;;;;10.48;82.96;98805.50;1754530;81;27298;-68
2024/04/03 08:16:02;;;;;;;7.60;4.30;;;;;;;10.61;80.96;98818.61;1753533;81;25848;-67
2024/04/03 08:18:29;;;;;;;8.63;4.80;;;;;;;10.71;81.18;98829.51;1753178;81;25686;-68
2024/04/03 08:21:10;;;;;;;6.22;4.25;;;;;;;10.91;81.05;98823.64;1754435;81;25866;-67
2024/04/03 08:23:38;;;;;;;6.20;3.70;;;;;;;11.08;78.83;98823.88;1754425;81;25631;-69
2024/04/03 08:26:09;;;;;;;4.17;3.80;;;;;;;11.13;78.90;98831.73;1754341;81;27322;-68
2024/04/03 08:28:40;;;;;;;4.55;3.37;;;;;;;11.16;78.18;98829.70;1754180;81;25540;-68
2024/04/03 08:31:17;;;;;;;6.22;3.25;;;;;;;11.30;77.23;98833.32;1753790;81;25442;-68
2024/04/03 08:33:45;;;;;;;4.22;3.85;;;;;;;11.23;76.94;98826.96;1754298;81;25687;-68
2024/04/03 08:36:12;;;;;;;7.75;3.25;;;;;;;11.20;76.66;98831.94;1754340;81;25462;-69
2024/04/03 08:38:38;;;;;;;3.35;3.05;;;;;;;11.49;77.59;98838.06;1754329;81;27284;-68
2024/04/03 08:41:05;;;;;;;4.65;3.40;;;;;;;11.92;75.95;98812.55;1754189;81;25998;-67
2024/04/03 08:43:34;;;;;;;5.67;3.12;;;;;;;12.05;73.41;98824.81;1754350;81;25470;-67
2024/04/03 08:46:01;;;;;;;4.03;2.90;;;;;;;12.09;73.42;98808.08;1754425;81;25575;-67
2024/04/03 08:48:29;;;;;;;3.58;2.85;;;;;;;12.17;73.65;98809.00;1754340;81;25591;-68
2024/04/03 08:50:56;;;;;;;4.10;2.87;;;;;;;12.05;73.17;98811.27;1754671;81;27233;-67
2024/04/03 08:53:24;;;;;;;5.62;3.05;;;;;;;11.90;72.03;98822.36;1754351;81;25445;-71
2024/04/03 08:55:54;;;;;;;8.03;5.35;;;;;;;11.76;72.76;98811.99;1754590;81;25630;-69
2024/04/03 08:58:21;;;;;;;;;;;;;;;11.67;73.27;98812.73;1757063;81;25410;-68
2024/04/03 09:00:48;;;;;;;;;;;;;;;11.57;72.30;98825.45;1757048;81;25631;-72
2024/04/03 09:03:15;;;;;;;;;;;;;;;11.51;73.56;98807.34;1756965;81;27311;-69
2024/04/03 09:05:42;;;;;;;;;;;;;;;11.45;73.54;98803.33;1756851;81;25773;-70
2024/04/03 09:08:09;;;;;;;;;;;;;;;11.38;73.83;98835.08;1756992;81;25611;-70
2024/04/03 09:10:47;;;;;;;;;;;;;;;11.30;74.79;98853.62;1756945;81;25923;-70
2024/04/03 09:13:11;;;;;;;;;;;;;;;11.23;76.09;98864.85;1756955;81;25543;-66
2024/04/03 09:15:37;;;;;;;;;;;;;;;11.05;78.17;98894.95;1757216;81;27405;-67
2024/04/03 09:18:06;;;;;;;;;;;;;;;10.81;77.60;98899.88;1757275;81;25688;-68
2024/04/03 09:20:39;;;;;;;;;;;;;;;10.42;77.40;98894.14;1757339;81;25722;-76
2024/04/03 09:23:08;;;;;;;;;;;;;;;10.12;77.70;98896.32;1757379;81;25986;-73
2024/04/03 09:25:35;;;;;;;;;;;;;;;9.87;78.51;98886.87;1757403;81;25606;-72
2024/04/03 09:28:09;;;;;;;;;;;;;;;9.69;80.02;98889.02;1757120;81;27321;-71
2024/04/03 09:30:40;;;;;;;;;;;;;;;9.59;80.94;98890.81;1763399;81;25379;-73
2024/04/03 09:33:07;;;;;;;;;;;;;;;9.49;81.34;98905.53;1765816;81;25397;-71
2024/04/03 09:35:39;;;;;;;;;;;;;;;9.42;81.81;98907.42;1765702;81;25952;-76
2024/04/03 09:38:05;;;;;;;;;;;;;;;9.42;82.99;98908.00;1765806;81;25633;-75
2024/04/03 09:40:34;;;;;;;;;;;;;;;9.38;82.99;98903.02;1765699;81;27408;-73
2024/04/03 09:43:07;;;;;;;;;;;;;;;9.32;82.97;98912.69;1765595;81;25382;-72
2024/04/03 09:45:34;;;;;;;;;;;;;;;9.30;83.25;98920.33;1765689;81;25591;-73
2024/04/03 09:48:03;;;;;;;;;;;;;;;9.29;83.68;98924.70;1765822;81;25543;-75
2024/04/03 09:50:39;;;;;;;;;;;;;;;9.27;84.19;98923.69;1765173;81;25396;-74
2024/04/03 09:53:07;;;;;;;;;;;;;;;9.30;84.74;98930.34;1762519;81;27564;-74
2024/04/03 09:55:36;;;;;;;;;;;;;;;9.38;85.08;98924.61;1765681;81;25831;-72
2024/04/03 09:58:04;;;;;;;;;;;;;;;9.45;85.22;98948.59;1765677;81;25457;-72
2024/04/03 10:00:30;;;;;;;;;;;;;;;9.47;85.04;98949.05;1737182;81;25877;-71
2024/04/03 10:02:56;;;;;;;;;;;;;;;9.47;84.80;98949.05;1737312;81;25682;-72
2024/04/03 10:05:38;;;;;;;;;;;;;;;9.45;84.97;98955.34;1765722;81;27391;-72
2024/04/03 10:08:10;;;;;;;;;;;;;;;9.42;85.04;98966.02;1765647;81;25433;-71
2024/04/03 10:10:47;;;;;;;;;;;;;;;9.33;84.51;98964.19;1765787;81;25449;-72
2024/04/03 10:13:20;;;;;;;;;;;;;;;9.31;84.88;98969.14;1765776;81;25935;-71
2024/04/03 10:15:46;;;;;;;;;;;;;;;9.24;84.70;98968.09;1758116;81;25594;-71
2024/04/03 10:18:16;;;;;;;;;;;;;;;9.19;85.13;98965.03;1765762;81;27336;-70
2024/04/03 10:20:42;;;;;;;;;;;;;;;9.16;85.11;98990.77;1765745;81;25273;-70
2024/04/03 10:23:09;;;;;;;;;;;;;;;9.11;85.20;98977.48;1765730;81;25526;-72
2024/04/03 10:25:36;;;;;;;;;;;;;;;9.15;85.71;98977.05;1765598;81;25388;-70
2024/04/03 10:28:10;;;;;;;;;;;;;;;9.13;85.37;98979.29;1765740;81;25602;-70
2024/04/03 10:30:37;;;;;;;;;;;;;;;9.14;85.91;98988.16;1764202;81;27941;-71
2024/04/03 10:33:05;;;;;;;;;;;;;;;9.15;86.66;98986.48;1763168;81;25526;-72
2024/04/03 10:35:31;;;;;;;;;;;;;;;9.16;86.48;98987.30;1763236;81;25554;-71
2024/04/03 10:38:01;;;;;;;;;;;;;;;9.12;85.99;98997.16;1763198;81;25379;-71
2024/04/03 10:40:29;;;;;;;;;;;;;;;9.12;86.48;98989.84;1763274;81;25464;-70
2024/04/03 10:42:55;;;;;;;;;;;;;;;9.15;86.44;99000.55;1763335;81;27883;-66
2024/04/03 10:45:21;;;;;;;;;;;;;;;9.19;86.92;98996.63;1763425;81;25636;-69
2024/04/03 10:47:48;;;;;;;;;;;;;;;9.24;86.51;98998.55;1763499;81;25593;-69
2024/04/03 10:50:15;;;;;;;;;;;;;;;9.30;86.57;99000.50;1763207;81;25440;-68
2024/04/03 10:52:44;;;;;;;;;;;;;;;9.35;86.04;98999.72;1763244;81;25559;-68
2024/04/03 10:55:11;;;;;;;;;;;;;;;9.35;85.27;99011.87;1763344;81;27665;-70
2024/04/03 10:57:39;;;;;;;;;;;;;;;9.39;85.57;99002.55;1763238;81;25542;-69
2024/04/03 11:00:08;;;;;;;;;;;;;;;9.48;85.83;99003.80;1763254;81;25368;-67
2024/04/03 11:02:34;;;;;;;;;;;;;;;9.56;86.14;99001.59;1762662;81;25384;-69
2024/04/03 11:05:00;;;;;;;;;;;;;;;9.63;85.67;98998.34;1763380;81;25388;-70
2024/04/03 11:07:26;;;;;;;;;;;;;;;9.66;85.23;99001.16;1763374;81;27731;-70
2024/04/03 11:09:52;;;;;;;;;;;;;;;9.73;85.53;99005.45;1763433;81;25580;-70
2024/04/03 11:12:18;;;;;;;;;;;;;;;9.78;84.98;99013.91;1763493;81;25542;-72
2024/04/03 11:14:45;;;;;;;;;;;;;;;9.75;84.72;99017.84;1763294;81;25578;-72
2024/04/03 11:17:11;;;;;;;;;;;;;;;9.76;84.67;99020.20;1763341;81;25393;-73
2024/04/03 11:19:38;;;;;;;;;;;;;;;9.77;84.35;99026.39;1763285;81;27349;-72
2024/04/03 11:22:04;;;;;;;;;;;;;;;9.76;84.54;99019.42;1763148;81;25453;-73
2024/04/03 11:24:30;;;;;;;;;;;;;;;9.71;84.33;99018.50;1763236;81;25486;-73
2024/04/03 11:26:56;;;;;;;;;;;;;;;9.70;84.83;99037.19;1763231;81;25556;-73
2024/04/03 11:29:27;;;;;;;;;;;;;;;9.68;84.58;99046.16;1763328;81;25446;-73
2024/04/03 11:31:54;;;;;;;;;;;;;;;9.62;84.13;99054.80;1763230;81;27968;-71
2024/04/03 11:34:20;;;;;;;;;;;;;;;9.53;84.19;99060.28;1763184;81;25548;-73
2024/04/03 11:36:46;;;;;;;;;;;;;;;9.43;83.97;99054.75;1763328;81;25594;-72
2024/04/03 11:39:16;;;;;;;;;;;;;;;9.33;83.89;99056.48;1737360;81;25485;-72
2024/04/03 11:41:42;;;;;;;;;;;;;;;9.23;84.67;99054.19;1762624;81;25195;-68
2024/04/03 11:44:08;;;;;;;;;;;;;;;9.17;85.75;99054.95;1763492;81;27416;-70
2024/04/03 11:46:35;;;;;;;;;;;;;;;9.11;85.74;99059.77;1763327;81;25377;-67
2024/04/03 11:49:03;;;;;;;;;;;;;;;9.03;85.69;99071.97;1763218;81;25401;-68
2024/04/03 11:51:30;;;;;;;;;;;;;;;8.95;85.77;99074.95;1763160;81;25950;-68
2024/04/03 11:53:56;;;;;;;;;;;;;;;8.88;85.99;99062.55;1763177;81;25590;-68
2024/04/03 11:56:22;;;;;;;;;;;;;;;8.82;86.24;99075.97;1763191;81;27751;-67
2024/04/03 11:58:52;;;;;;;;;;;;;;;8.76;86.73;99072.69;1763074;81;25605;-67
2024/04/03 12:01:19;;;;;;;;;;;;;;;8.79;87.45;99080.91;1763134;81;25628;-67
2024/04/03 12:03:45;;;;;;;;;;;;;;;8.82;87.77;99090.27;1763194;81;25994;-68